sensor_id;sensor_type;location;lat;lon;timestamp;P1;P2;P0
65783;PMS5003;52532;53.358;-1.488;2022-09-25T00:01:38;1.6;1.6;
65783;PMS5003;52532;53.358;-1.488;2022-09-25T00:04:41;2.2;1.3;
65783;PMS5003;52532;53.358;-1.488;2022-09-25T00:07:44;1.9;1.3;
65783;PMS5003;52532;53.358;-1.488;2022-09-25T00:10:47;4.1;1.6;
65783;PMS5003;52532;53.358;-1.488;2022-09-25T00:13:52;4.0;1.2;
65783;PMS5003;52532;53.358;-1.488;2022-09-25T00:16:56;11.2;0.4;
65783;PMS5003;52532;53.358;-1.488;2022-09-25T00:19:58;8.2;1.0;
65783;PMS5003;52532;53.358;-1.488;2022-09-25T00:23:02;1.7;1.7;
65783;PMS5003;52532;53.358;-1.488;2022-09-25T00:26:05;8.2;8.2;
65783;PMS5003;52532;53.358;-1.488;2022-09-25T00:29:12;9.1;8.7;
65783;PMS5003;52532;53.358;-1.488;2022-09-25T00:32:18;7.7;3.7;
65783;PMS5003;52532;53.358;-1.488;2022-09-25T00:35:21;2.3;2.3;
65783;PMS5003;52532;53.358;-1.488;2022-09-25T00:38:24;1.6;1.6;
65783;PMS5003;52532;53.358;-1.488;2022-09-25T00:41:28;2.6;2.6;
65783;PMS5003;52532;53.358;-1.488;2022-09-25T00:45:05;4.2;4.1;
65783;PMS5003;52532;53.358;-1.488;2022-09-25T00:48:13;2.9;1.8;
65783;PMS5003;52532;53.358;-1.488;2022-09-25T00:51:17;0.8;0.8;
65783;PMS5003;52532;53.358;-1.488;2022-09-25T00:54:24;0.6;0.6;
65783;PMS5003;52532;53.358;-1.488;2022-09-25T00:57:32;2.6;1.2;
65783;PMS5003;52532;53.358;-1.488;2022-09-25T01:00:39;1.4;1.0;
65783;PMS5003;52532;53.358;-1.488;2022-09-25T01:03:42;1.4;1.1;
65783;PMS5003;52532;53.358;-1.488;2022-09-25T01:06:47;4.8;4.5;
65783;PMS5003;52532;53.358;-1.488;2022-09-25T01:09:50;3.4;3.4;
65783;PMS5003;52532;53.358;-1.488;2022-09-25T01:12:54;0.9;0.9;
65783;PMS5003;52532;53.358;-1.488;2022-09-25T01:16:02;1.2;1.2;
65783;PMS5003;52532;53.358;-1.488;2022-09-25T01:19:12;1.0;1.0;
65783;PMS5003;52532;53.358;-1.488;2022-09-25T01:22:27;0.4;0.4;
65783;PMS5003;52532;53.358;-1.488;2022-09-25T01:25:49;3.5;1.9;
65783;PMS5003;52532;53.358;-1.488;2022-09-25T01:29:04;3.7;2.2;
65783;PMS5003;52532;53.358;-1.488;2022-09-25T01:32:15;1.8;1.0;
65783;PMS5003;52532;53.358;-1.488;2022-09-25T01:35:26;0.8;0.8;
65783;PMS5003;52532;53.358;-1.488;2022-09-25T01:38:37;1.0;1.0;
65783;PMS5003;52532;53.358;-1.488;2022-09-25T01:41:46;0.9;0.8;
65783;PMS5003;52532;53.358;-1.488;2022-09-25T01:44:54;0.2;0.2;
65783;PMS5003;52532;53.358;-1.488;2022-09-25T01:48:03;0.9;0.9;
65783;PMS5003;52532;53.358;-1.488;2022-09-25T01:51:12;0.9;0.9;
65783;PMS5003;52532;53.358;-1.488;2022-09-25T01:54:19;1.4;1.4;
65783;PMS5003;52532;53.358;-1.488;2022-09-25T01:57:26;1.6;0.9;
65783;PMS5003;52532;53.358;-1.488;2022-09-25T02:00:36;1.4;0.7;
65783;PMS5003;52532;53.358;-1.488;2022-09-25T02:03:43;0.6;0.6;
65783;PMS5003;52532;53.358;-1.488;2022-09-25T02:06:50;1.6;1.6;
65783;PMS5003;52532;53.358;-1.488;2022-09-25T02:10:01;1.0;1.0;
65783;PMS5003;52532;53.358;-1.488;2022-09-25T02:13:07;1.0;1.0;
65783;PMS5003;52532;53.358;-1.488;2022-09-25T02:16:14;0.9;0.9;
65783;PMS5003;52532;53.358;-1.488;2022-09-25T02:19:21;0.5;0.5;
65783;PMS5003;52532;53.358;-1.488;2022-09-25T02:23:35;0.4;0.4;
65783;PMS5003;52532;53.358;-1.488;2022-09-25T02:26:51;1.1;1.1;
65783;PMS5003;52532;53.358;-1.488;2022-09-25T02:29:54;3.6;2.8;
65783;PMS5003;52532;53.358;-1.488;2022-09-25T02:32:58;2.6;2.6;
65783;PMS5003;52532;53.358;-1.488;2022-09-25T02:36:02;2.6;2.6;
65783;PMS5003;52532;53.358;-1.488;2022-09-25T02:39:07;2.9;2.3;
65783;PMS5003;52532;53.358;-1.488;2022-09-25T02:42:13;6.6;4.5;
65783;PMS5003;52532;53.358;-1.488;2022-09-25T02:45:29;4.5;4.2;
65783;PMS5003;52532;53.358;-1.488;2022-09-25T02:48:43;3.6;3.0;
65783;PMS5003;52532;53.358;-1.488;2022-09-25T02:51:55;4.0;3.7;
65783;PMS5003;52532;53.358;-1.488;2022-09-25T02:55:05;1.5;0.9;
65783;PMS5003;52532;53.358;-1.488;2022-09-25T02:58:13;1.6;1.6;
65783;PMS5003;52532;53.358;-1.488;2022-09-25T03:01:21;3.6;2.9;
65783;PMS5003;52532;53.358;-1.488;2022-09-25T03:04:27;4.9;4.2;
65783;PMS5003;52532;53.358;-1.488;2022-09-25T03:07:35;3.0;3.0;
65783;PMS5003;52532;53.358;-1.488;2022-09-25T03:11:38;3.8;3.3;
65783;PMS5003;52532;53.358;-1.488;2022-09-25T03:14:44;5.5;1.5;
65783;PMS5003;52532;53.358;-1.488;2022-09-25T03:17:47;2.4;2.2;
65783;PMS5003;52532;53.358;-1.488;2022-09-25T03:20:51;5.7;2.7;
65783;PMS5003;52532;53.358;-1.488;2022-09-25T03:23:54;3.9;1.9;
65783;PMS5003;52532;53.358;-1.488;2022-09-25T03:26:57;3.3;3.2;
65783;PMS5003;52532;53.358;-1.488;2022-09-25T03:30:00;2.6;2.5;
65783;PMS5003;52532;53.358;-1.488;2022-09-25T03:33:03;2.6;2.6;
65783;PMS5003;52532;53.358;-1.488;2022-09-25T03:36:07;3.5;3.5;
65783;PMS5003;52532;53.358;-1.488;2022-09-25T03:39:13;3.1;3.0;
65783;PMS5003;52532;53.358;-1.488;2022-09-25T03:42:18;3.6;3.6;
65783;PMS5003;52532;53.358;-1.488;2022-09-25T03:45:21;2.6;2.6;
65783;PMS5003;52532;53.358;-1.488;2022-09-25T03:48:24;2.6;2.6;
65783;PMS5003;52532;53.358;-1.488;2022-09-25T03:51:27;2.5;2.1;
65783;PMS5003;52532;53.358;-1.488;2022-09-25T03:54:31;3.3;2.9;
65783;PMS5003;52532;53.358;-1.488;2022-09-25T03:57:35;3.7;3.7;
65783;PMS5003;52532;53.358;-1.488;2022-09-25T04:00:37;5.3;4.3;
65783;PMS5003;52532;53.358;-1.488;2022-09-25T04:03:40;7.0;5.7;
65783;PMS5003;52532;53.358;-1.488;2022-09-25T04:06:47;3.6;1.2;
65783;PMS5003;52532;53.358;-1.488;2022-09-25T04:09:50;1.1;1.1;
65783;PMS5003;52532;53.358;-1.488;2022-09-25T04:15:50;4.6;0.9;
65783;PMS5003;52532;53.358;-1.488;2022-09-25T04:18:53;15.0;3.7;
65783;PMS5003;52532;53.358;-1.488;2022-09-25T04:21:56;17.9;6.3;
65783;PMS5003;52532;53.358;-1.488;2022-09-25T04:24:59;7.0;2.4;
65783;PMS5003;52532;53.358;-1.488;2022-09-25T04:28:03;27.8;14.1;
65783;PMS5003;52532;53.358;-1.488;2022-09-25T04:31:08;27.8;16.4;
65783;PMS5003;52532;53.358;-1.488;2022-09-25T04:34:10;11.7;5.6;
65783;PMS5003;52532;53.358;-1.488;2022-09-25T04:37:13;25.6;12.0;
65783;PMS5003;52532;53.358;-1.488;2022-09-25T04:40:16;23.5;11.2;
65783;PMS5003;52532;53.358;-1.488;2022-09-25T04:43:19;15.3;5.4;
65783;PMS5003;52532;53.358;-1.488;2022-09-25T04:46:22;23.0;8.0;
65783;PMS5003;52532;53.358;-1.488;2022-09-25T04:49:24;16.7;7.3;
65783;PMS5003;52532;53.358;-1.488;2022-09-25T04:52:27;3.3;1.8;
65783;PMS5003;52532;53.358;-1.488;2022-09-25T04:55:30;3.7;2.2;
65783;PMS5003;52532;53.358;-1.488;2022-09-25T04:58:33;1.4;1.1;
65783;PMS5003;52532;53.358;-1.488;2022-09-25T05:01:36;0.7;0.7;
65783;PMS5003;52532;53.358;-1.488;2022-09-25T05:04:39;0.0;0.0;
65783;PMS5003;52532;53.358;-1.488;2022-09-25T05:07:49;0.0;0.0;
65783;PMS5003;52532;53.358;-1.488;2022-09-25T05:10:53;0.0;0.0;
65783;PMS5003;52532;53.358;-1.488;2022-09-25T05:13:56;0.0;0.0;
65783;PMS5003;52532;53.358;-1.488;2022-09-25T05:16:59;0.0;0.0;
65783;PMS5003;52532;53.358;-1.488;2022-09-25T05:20:02;0.0;0.0;
65783;PMS5003;52532;53.358;-1.488;2022-09-25T05:23:05;0.0;0.0;
65783;PMS5003;52532;53.358;-1.488;2022-09-25T05:26:08;0.7;0.7;
65783;PMS5003;52532;53.358;-1.488;2022-09-25T05:29:11;0.0;0.0;
65783;PMS5003;52532;53.358;-1.488;2022-09-25T05:32:15;0.0;0.0;
65783;PMS5003;52532;53.358;-1.488;2022-09-25T05:35:19;1.1;0.2;
65783;PMS5003;52532;53.358;-1.488;2022-09-25T05:38:25;0.7;0.0;
65783;PMS5003;52532;53.358;-1.488;2022-09-25T05:41:28;0.6;0.6;
65783;PMS5003;52532;53.358;-1.488;2022-09-25T05:44:31;0.0;0.0;
65783;PMS5003;52532;53.358;-1.488;2022-09-25T05:47:35;0.6;0.6;
65783;PMS5003;52532;53.358;-1.488;2022-09-25T05:50:38;0.7;0.7;
65783;PMS5003;52532;53.358;-1.488;2022-09-25T05:53:41;0.0;0.0;
65783;PMS5003;52532;53.358;-1.488;2022-09-25T05:56:43;0.0;0.0;
65783;PMS5003;52532;53.358;-1.488;2022-09-25T05:59:46;0.0;0.0;
65783;PMS5003;52532;53.358;-1.488;2022-09-25T06:02:50;2.6;0.0;
65783;PMS5003;52532;53.358;-1.488;2022-09-25T06:05:54;0.2;0.0;
65783;PMS5003;52532;53.358;-1.488;2022-09-25T06:08:57;0.0;0.0;
65783;PMS5003;52532;53.358;-1.488;2022-09-25T06:12:00;0.0;0.0;
65783;PMS5003;52532;53.358;-1.488;2022-09-25T06:15:03;0.0;0.0;
65783;PMS5003;52532;53.358;-1.488;2022-09-25T06:18:07;0.0;0.0;
65783;PMS5003;52532;53.358;-1.488;2022-09-25T06:21:10;0.0;0.0;
65783;PMS5003;52532;53.358;-1.488;2022-09-25T06:24:13;0.3;0.3;
65783;PMS5003;52532;53.358;-1.488;2022-09-25T06:27:16;5.3;3.0;
65783;PMS5003;52532;53.358;-1.488;2022-09-25T06:30:19;5.5;3.5;
65783;PMS5003;52532;53.358;-1.488;2022-09-25T06:33:22;0.0;0.0;
65783;PMS5003;52532;53.358;-1.488;2022-09-25T06:36:25;6.4;0.5;
65783;PMS5003;52532;53.358;-1.488;2022-09-25T06:39:30;9.5;3.2;
65783;PMS5003;52532;53.358;-1.488;2022-09-25T06:42:34;6.5;0.6;
65783;PMS5003;52532;53.358;-1.488;2022-09-25T06:45:37;14.4;1.5;
65783;PMS5003;52532;53.358;-1.488;2022-09-25T06:48:50;13.9;3.9;
65783;PMS5003;52532;53.358;-1.488;2022-09-25T06:51:54;14.3;6.2;
65783;PMS5003;52532;53.358;-1.488;2022-09-25T06:54:58;13.8;1.1;
65783;PMS5003;52532;53.358;-1.488;2022-09-25T06:58:02;12.4;1.8;
65783;PMS5003;52532;53.358;-1.488;2022-09-25T07:01:05;8.8;1.3;
65783;PMS5003;52532;53.358;-1.488;2022-09-25T07:04:11;14.0;0.6;
65783;PMS5003;52532;53.358;-1.488;2022-09-25T07:07:14;28.7;15.6;
65783;PMS5003;52532;53.358;-1.488;2022-09-25T07:10:20;40.0;31.1;
65783;PMS5003;52532;53.358;-1.488;2022-09-25T07:13:23;55.1;41.1;
65783;PMS5003;52532;53.358;-1.488;2022-09-25T07:16:33;77.1;63.1;
65783;PMS5003;52532;53.358;-1.488;2022-09-25T07:19:36;66.8;58.2;
65783;PMS5003;52532;53.358;-1.488;2022-09-25T07:22:39;22.6;10.3;
65783;PMS5003;52532;53.358;-1.488;2022-09-25T07:25:42;14.0;0.6;
65783;PMS5003;52532;53.358;-1.488;2022-09-25T07:28:47;19.5;11.5;
65783;PMS5003;52532;53.358;-1.488;2022-09-25T07:31:53;30.8;22.0;
65783;PMS5003;52532;53.358;-1.488;2022-09-25T07:34:56;13.2;0.4;
65783;PMS5003;52532;53.358;-1.488;2022-09-25T07:37:59;9.4;0.0;
65783;PMS5003;52532;53.358;-1.488;2022-09-25T07:41:02;26.4;18.6;
65783;PMS5003;52532;53.358;-1.488;2022-09-25T07:44:07;12.8;0.3;
65783;PMS5003;52532;53.358;-1.488;2022-09-25T07:47:10;11.1;0.1;
65783;PMS5003;52532;53.358;-1.488;2022-09-25T07:50:15;10.6;2.0;
65783;PMS5003;52532;53.358;-1.488;2022-09-25T07:53:18;3.5;0.1;
65783;PMS5003;52532;53.358;-1.488;2022-09-25T07:59:38;0.4;0.4;
65783;PMS5003;52532;53.358;-1.488;2022-09-25T08:02:41;0.7;0.4;
65783;PMS5003;52532;53.358;-1.488;2022-09-25T08:05:57;2.8;1.3;
65783;PMS5003;52532;53.358;-1.488;2022-09-25T08:09:00;1.0;1.0;
65783;PMS5003;52532;53.358;-1.488;2022-09-25T08:12:03;0.0;0.0;
65783;PMS5003;52532;53.358;-1.488;2022-09-25T08:15:06;0.6;0.5;
65783;PMS5003;52532;53.358;-1.488;2022-09-25T08:21:08;0.5;0.5;
65783;PMS5003;52532;53.358;-1.488;2022-09-25T08:24:14;0.9;0.3;
65783;PMS5003;52532;53.358;-1.488;2022-09-25T08:27:17;1.8;0.0;
65783;PMS5003;52532;53.358;-1.488;2022-09-25T08:30:20;0.0;0.0;
65783;PMS5003;52532;53.358;-1.488;2022-09-25T08:33:23;0.0;0.0;
65783;PMS5003;52532;53.358;-1.488;2022-09-25T08:36:26;0.0;0.0;
65783;PMS5003;52532;53.358;-1.488;2022-09-25T08:39:29;0.0;0.0;
65783;PMS5003;52532;53.358;-1.488;2022-09-25T08:42:33;0.0;0.0;
65783;PMS5003;52532;53.358;-1.488;2022-09-25T08:45:38;0.0;0.0;
65783;PMS5003;52532;53.358;-1.488;2022-09-25T08:51:59;0.1;0.1;
65783;PMS5003;52532;53.358;-1.488;2022-09-25T08:55:08;0.0;0.0;
65783;PMS5003;52532;53.358;-1.488;2022-09-25T08:58:16;0.0;0.0;
65783;PMS5003;52532;53.358;-1.488;2022-09-25T09:01:25;0.6;0.0;
65783;PMS5003;52532;53.358;-1.488;2022-09-25T09:04:33;0.0;0.0;
65783;PMS5003;52532;53.358;-1.488;2022-09-25T09:07:42;0.0;0.0;
65783;PMS5003;52532;53.358;-1.488;2022-09-25T09:13:47;0.0;0.0;
65783;PMS5003;52532;53.358;-1.488;2022-09-25T09:16:54;0.9;0.0;
65783;PMS5003;52532;53.358;-1.488;2022-09-25T09:20:13;1.8;0.0;
65783;PMS5003;52532;53.358;-1.488;2022-09-25T09:23:19;0.1;0.0;
65783;PMS5003;52532;53.358;-1.488;2022-09-25T09:26:26;0.0;0.0;
65783;PMS5003;52532;53.358;-1.488;2022-09-25T09:29:55;0.0;0.0;
65783;PMS5003;52532;53.358;-1.488;2022-09-25T09:33:14;0.0;0.0;
65783;PMS5003;52532;53.358;-1.488;2022-09-25T09:36:32;0.0;0.0;
65783;PMS5003;52532;53.358;-1.488;2022-09-25T09:39:41;0.0;0.0;
65783;PMS5003;52532;53.358;-1.488;2022-09-25T09:42:51;0.0;0.0;
65783;PMS5003;52532;53.358;-1.488;2022-09-25T09:46:06;0.0;0.0;
65783;PMS5003;52532;53.358;-1.488;2022-09-25T09:49:16;0.0;0.0;
65783;PMS5003;52532;53.358;-1.488;2022-09-25T09:52:27;0.7;0.4;
65783;PMS5003;52532;53.358;-1.488;2022-09-25T09:55:36;0.0;0.0;
65783;PMS5003;52532;53.358;-1.488;2022-09-25T09:58:45;0.0;0.0;
65783;PMS5003;52532;53.358;-1.488;2022-09-25T10:01:59;0.1;0.1;
65783;PMS5003;52532;53.358;-1.488;2022-09-25T10:05:06;1.4;1.4;
65783;PMS5003;52532;53.358;-1.488;2022-09-25T10:08:23;0.0;0.0;
65783;PMS5003;52532;53.358;-1.488;2022-09-25T10:11:28;0.0;0.0;
65783;PMS5003;52532;53.358;-1.488;2022-09-25T10:14:35;0.0;0.0;
65783;PMS5003;52532;53.358;-1.488;2022-09-25T10:17:42;0.0;0.0;
65783;PMS5003;52532;53.358;-1.488;2022-09-25T10:20:46;0.0;0.0;
65783;PMS5003;52532;53.358;-1.488;2022-09-25T10:23:55;2.5;0.0;
65783;PMS5003;52532;53.358;-1.488;2022-09-25T10:27:03;0.1;0.0;
65783;PMS5003;52532;53.358;-1.488;2022-09-25T10:30:23;0.1;0.0;
65783;PMS5003;52532;53.358;-1.488;2022-09-25T10:33:26;0.9;0.5;
65783;PMS5003;52532;53.358;-1.488;2022-09-25T10:36:33;0.0;0.0;
65783;PMS5003;52532;53.358;-1.488;2022-09-25T10:39:40;0.0;0.0;
65783;PMS5003;52532;53.358;-1.488;2022-09-25T10:42:43;0.0;0.0;
65783;PMS5003;52532;53.358;-1.488;2022-09-25T10:45:46;0.0;0.0;
65783;PMS5003;52532;53.358;-1.488;2022-09-25T10:48:52;0.3;0.3;
65783;PMS5003;52532;53.358;-1.488;2022-09-25T10:53:27;0.3;0.3;
65783;PMS5003;52532;53.358;-1.488;2022-09-25T10:56:31;0.3;0.3;
65783;PMS5003;52532;53.358;-1.488;2022-09-25T10:59:36;0.3;0.3;
65783;PMS5003;52532;53.358;-1.488;2022-09-25T11:02:40;0.0;0.0;
65783;PMS5003;52532;53.358;-1.488;2022-09-25T11:05:49;0.0;0.0;
65783;PMS5003;52532;53.358;-1.488;2022-09-25T11:08:58;0.8;0.0;
65783;PMS5003;52532;53.358;-1.488;2022-09-25T11:12:11;1.0;0.0;
65783;PMS5003;52532;53.358;-1.488;2022-09-25T11:15:17;0.4;0.4;
65783;PMS5003;52532;53.358;-1.488;2022-09-25T11:18:33;0.8;0.7;
65783;PMS5003;52532;53.358;-1.488;2022-09-25T11:21:40;2.1;2.1;
65783;PMS5003;52532;53.358;-1.488;2022-09-25T11:24:52;1.2;1.2;
65783;PMS5003;52532;53.358;-1.488;2022-09-25T11:27:59;0.5;0.0;
65783;PMS5003;52532;53.358;-1.488;2022-09-25T11:31:10;1.5;0.0;
65783;PMS5003;52532;53.358;-1.488;2022-09-25T11:34:22;0.6;0.1;
65783;PMS5003;52532;53.358;-1.488;2022-09-25T11:37:35;0.0;0.0;
65783;PMS5003;52532;53.358;-1.488;2022-09-25T11:40:49;0.0;0.0;
65783;PMS5003;52532;53.358;-1.488;2022-09-25T11:44:25;0.0;0.0;
65783;PMS5003;52532;53.358;-1.488;2022-09-25T11:47:36;0.0;0.0;
65783;PMS5003;52532;53.358;-1.488;2022-09-25T11:50:48;0.0;0.0;
65783;PMS5003;52532;53.358;-1.488;2022-09-25T11:54:07;0.4;0.0;
65783;PMS5003;52532;53.358;-1.488;2022-09-25T11:57:22;0.2;0.0;
65783;PMS5003;52532;53.358;-1.488;2022-09-25T12:00:35;0.0;0.0;
65783;PMS5003;52532;53.358;-1.488;2022-09-25T12:03:51;0.0;0.0;
65783;PMS5003;52532;53.358;-1.488;2022-09-25T12:07:23;0.3;0.0;
65783;PMS5003;52532;53.358;-1.488;2022-09-25T12:10:51;0.0;0.0;
65783;PMS5003;52532;53.358;-1.488;2022-09-25T12:14:06;0.4;0.0;
65783;PMS5003;52532;53.358;-1.488;2022-09-25T12:17:19;1.7;0.0;
65783;PMS5003;52532;53.358;-1.488;2022-09-25T12:20:32;0.1;0.1;
65783;PMS5003;52532;53.358;-1.488;2022-09-25T12:23:41;0.5;0.5;
65783;PMS5003;52532;53.358;-1.488;2022-09-25T12:26:53;0.0;0.0;
65783;PMS5003;52532;53.358;-1.488;2022-09-25T12:30:08;0.0;0.0;
65783;PMS5003;52532;53.358;-1.488;2022-09-25T12:33:21;0.0;0.0;
65783;PMS5003;52532;53.358;-1.488;2022-09-25T12:39:34;0.0;0.0;
65783;PMS5003;52532;53.358;-1.488;2022-09-25T12:42:44;0.9;0.2;
65783;PMS5003;52532;53.358;-1.488;2022-09-25T12:45:53;0.2;0.0;
65783;PMS5003;52532;53.358;-1.488;2022-09-25T12:49:03;0.1;0.0;
65783;PMS5003;52532;53.358;-1.488;2022-09-25T12:52:13;0.2;0.0;
65783;PMS5003;52532;53.358;-1.488;2022-09-25T12:55:21;0.3;0.0;
65783;PMS5003;52532;53.358;-1.488;2022-09-25T12:58:34;0.3;0.0;
65783;PMS5003;52532;53.358;-1.488;2022-09-25T13:01:45;1.5;0.0;
65783;PMS5003;52532;53.358;-1.488;2022-09-25T13:04:56;1.9;0.1;
65783;PMS5003;52532;53.358;-1.488;2022-09-25T13:08:12;0.4;0.4;
65783;PMS5003;52532;53.358;-1.488;2022-09-25T13:11:23;0.1;0.1;
65783;PMS5003;52532;53.358;-1.488;2022-09-25T13:14:37;0.0;0.0;
65783;PMS5003;52532;53.358;-1.488;2022-09-25T13:17:45;0.0;0.0;
65783;PMS5003;52532;53.358;-1.488;2022-09-25T13:20:49;0.0;0.0;
65783;PMS5003;52532;53.358;-1.488;2022-09-25T13:23:54;0.0;0.0;
65783;PMS5003;52532;53.358;-1.488;2022-09-25T13:27:08;0.1;0.0;
65783;PMS5003;52532;53.358;-1.488;2022-09-25T13:30:20;0.0;0.0;
65783;PMS5003;52532;53.358;-1.488;2022-09-25T13:33:25;0.0;0.0;
65783;PMS5003;52532;53.358;-1.488;2022-09-25T13:36:31;0.0;0.0;
65783;PMS5003;52532;53.358;-1.488;2022-09-25T13:39:39;0.0;0.0;
65783;PMS5003;52532;53.358;-1.488;2022-09-25T13:44:35;0.1;0.1;
65783;PMS5003;52532;53.358;-1.488;2022-09-25T13:47:43;0.0;0.0;
65783;PMS5003;52532;53.358;-1.488;2022-09-25T13:50:52;1.0;1.0;
65783;PMS5003;52532;53.358;-1.488;2022-09-25T13:54:29;0.2;0.2;
65783;PMS5003;52532;53.358;-1.488;2022-09-25T13:58:15;0.0;0.0;
65783;PMS5003;52532;53.358;-1.488;2022-09-25T14:01:19;0.0;0.0;
65783;PMS5003;52532;53.358;-1.488;2022-09-25T14:04:35;0.0;0.0;
65783;PMS5003;52532;53.358;-1.488;2022-09-25T14:07:40;0.3;0.0;
65783;PMS5003;52532;53.358;-1.488;2022-09-25T14:10:43;0.5;0.0;
65783;PMS5003;52532;53.358;-1.488;2022-09-25T14:13:50;0.0;0.0;
65783;PMS5003;52532;53.358;-1.488;2022-09-25T14:16:56;0.6;0.0;
65783;PMS5003;52532;53.358;-1.488;2022-09-25T14:20:03;1.1;0.0;
65783;PMS5003;52532;53.358;-1.488;2022-09-25T14:23:13;0.8;0.0;
65783;PMS5003;52532;53.358;-1.488;2022-09-25T14:26:18;1.3;0.7;
65783;PMS5003;52532;53.358;-1.488;2022-09-25T14:29:23;2.2;1.6;
65783;PMS5003;52532;53.358;-1.488;2022-09-25T14:32:33;0.2;0.2;
65783;PMS5003;52532;53.358;-1.488;2022-09-25T14:35:47;0.0;0.0;
65783;PMS5003;52532;53.358;-1.488;2022-09-25T14:39:36;0.1;0.0;
65783;PMS5003;52532;53.358;-1.488;2022-09-25T14:43:56;0.0;0.0;
65783;PMS5003;52532;53.358;-1.488;2022-09-25T14:47:15;0.0;0.0;
65783;PMS5003;52532;53.358;-1.488;2022-09-25T14:50:21;0.4;0.0;
65783;PMS5003;52532;53.358;-1.488;2022-09-25T14:53:27;0.4;0.0;
65783;PMS5003;52532;53.358;-1.488;2022-09-25T14:56:33;0.0;0.0;
65783;PMS5003;52532;53.358;-1.488;2022-09-25T14:59:38;0.0;0.0;
65783;PMS5003;52532;53.358;-1.488;2022-09-25T15:02:44;0.2;0.2;
65783;PMS5003;52532;53.358;-1.488;2022-09-25T15:05:49;0.0;0.0;
65783;PMS5003;52532;53.358;-1.488;2022-09-25T15:08:52;0.0;0.0;
65783;PMS5003;52532;53.358;-1.488;2022-09-25T15:14:57;0.7;0.4;
65783;PMS5003;52532;53.358;-1.488;2022-09-25T15:18:01;0.6;0.3;
65783;PMS5003;52532;53.358;-1.488;2022-09-25T15:21:06;0.2;0.0;
65783;PMS5003;52532;53.358;-1.488;2022-09-25T15:24:13;0.9;0.0;
65783;PMS5003;52532;53.358;-1.488;2022-09-25T15:27:19;0.4;0.0;
65783;PMS5003;52532;53.358;-1.488;2022-09-25T15:30:24;0.6;0.1;
65783;PMS5003;52532;53.358;-1.488;2022-09-25T15:33:30;0.6;0.0;
65783;PMS5003;52532;53.358;-1.488;2022-09-25T15:36:34;0.0;0.0;
65783;PMS5003;52532;53.358;-1.488;2022-09-25T15:39:39;0.0;0.0;
65783;PMS5003;52532;53.358;-1.488;2022-09-25T15:42:44;0.0;0.0;
65783;PMS5003;52532;53.358;-1.488;2022-09-25T15:45:49;0.2;0.2;
65783;PMS5003;52532;53.358;-1.488;2022-09-25T15:48:58;0.0;0.0;
65783;PMS5003;52532;53.358;-1.488;2022-09-25T15:52:03;0.0;0.0;
65783;PMS5003;52532;53.358;-1.488;2022-09-25T15:55:13;0.6;0.6;
65783;PMS5003;52532;53.358;-1.488;2022-09-25T15:58:18;0.0;0.0;
65783;PMS5003;52532;53.358;-1.488;2022-09-25T16:01:23;0.2;0.2;
65783;PMS5003;52532;53.358;-1.488;2022-09-25T16:06:41;0.2;0.0;
65783;PMS5003;52532;53.358;-1.488;2022-09-25T16:09:46;0.6;0.1;
65783;PMS5003;52532;53.358;-1.488;2022-09-25T16:12:49;0.1;0.1;
65783;PMS5003;52532;53.358;-1.488;2022-09-25T16:15:53;0.2;0.2;
65783;PMS5003;52532;53.358;-1.488;2022-09-25T16:18:57;0.0;0.0;
65783;PMS5003;52532;53.358;-1.488;2022-09-25T16:22:13;1.4;0.0;
65783;PMS5003;52532;53.358;-1.488;2022-09-25T16:25:24;1.0;0.1;
65783;PMS5003;52532;53.358;-1.488;2022-09-25T16:28:32;1.5;0.0;
65783;PMS5003;52532;53.358;-1.488;2022-09-25T16:31:36;0.8;0.0;
65783;PMS5003;52532;53.358;-1.488;2022-09-25T16:34:45;0.0;0.0;
65783;PMS5003;52532;53.358;-1.488;2022-09-25T16:37:55;0.2;0.2;
65783;PMS5003;52532;53.358;-1.488;2022-09-25T16:41:01;0.7;0.2;
65783;PMS5003;52532;53.358;-1.488;2022-09-25T16:44:10;0.6;0.0;
65783;PMS5003;52532;53.358;-1.488;2022-09-25T16:47:17;8.1;0.0;
65783;PMS5003;52532;53.358;-1.488;2022-09-25T16:50:21;10.3;0.0;
65783;PMS5003;52532;53.358;-1.488;2022-09-25T16:53:26;5.8;0.0;
65783;PMS5003;52532;53.358;-1.488;2022-09-25T16:56:29;2.9;2.9;
65783;PMS5003;52532;53.358;-1.488;2022-09-25T16:59:34;1.6;1.6;
65783;PMS5003;52532;53.358;-1.488;2022-09-25T17:02:37;0.1;0.1;
65783;PMS5003;52532;53.358;-1.488;2022-09-25T17:05:43;0.0;0.0;
65783;PMS5003;52532;53.358;-1.488;2022-09-25T17:08:46;17.8;9.0;
65783;PMS5003;52532;53.358;-1.488;2022-09-25T17:11:50;48.6;37.1;
65783;PMS5003;52532;53.358;-1.488;2022-09-25T17:14:57;16.1;8.2;
65783;PMS5003;52532;53.358;-1.488;2022-09-25T17:18:00;17.2;6.6;
65783;PMS5003;52532;53.358;-1.488;2022-09-25T17:21:09;9.6;0.8;
65783;PMS5003;52532;53.358;-1.488;2022-09-25T17:24:14;9.8;3.4;
65783;PMS5003;52532;53.358;-1.488;2022-09-25T17:27:18;12.8;2.3;
65783;PMS5003;52532;53.358;-1.488;2022-09-25T17:30:21;9.6;0.0;
65783;PMS5003;52532;53.358;-1.488;2022-09-25T17:33:24;6.1;0.0;
65783;PMS5003;52532;53.358;-1.488;2022-09-25T17:36:36;3.4;0.0;
65783;PMS5003;52532;53.358;-1.488;2022-09-25T17:39:39;1.3;0.0;
65783;PMS5003;52532;53.358;-1.488;2022-09-25T17:42:42;2.3;0.0;
65783;PMS5003;52532;53.358;-1.488;2022-09-25T17:45:46;44.0;36.5;
65783;PMS5003;52532;53.358;-1.488;2022-09-25T17:48:50;11.2;1.5;
65783;PMS5003;52532;53.358;-1.488;2022-09-25T17:51:53;7.0;0.0;
65783;PMS5003;52532;53.358;-1.488;2022-09-25T17:54:57;6.2;0.0;
65783;PMS5003;52532;53.358;-1.488;2022-09-25T17:58:00;10.5;0.0;
65783;PMS5003;52532;53.358;-1.488;2022-09-25T18:01:03;9.8;0.0;
65783;PMS5003;52532;53.358;-1.488;2022-09-25T18:04:17;6.1;0.0;
65783;PMS5003;52532;53.358;-1.488;2022-09-25T18:07:21;0.9;0.0;
65783;PMS5003;52532;53.358;-1.488;2022-09-25T18:10:24;0.0;0.0;
65783;PMS5003;52532;53.358;-1.488;2022-09-25T18:13:29;0.0;0.0;
65783;PMS5003;52532;53.358;-1.488;2022-09-25T18:16:32;0.0;0.0;
65783;PMS5003;52532;53.358;-1.488;2022-09-25T18:19:35;0.0;0.0;
65783;PMS5003;52532;53.358;-1.488;2022-09-25T18:24:50;0.0;0.0;
65783;PMS5003;52532;53.358;-1.488;2022-09-25T18:27:57;0.0;0.0;
65783;PMS5003;52532;53.358;-1.488;2022-09-25T18:31:00;0.0;0.0;
65783;PMS5003;52532;53.358;-1.488;2022-09-25T18:37:04;0.0;0.0;
65783;PMS5003;52532;53.358;-1.488;2022-09-25T18:40:07;3.2;0.0;
65783;PMS5003;52532;53.358;-1.488;2022-09-25T18:43:11;3.8;0.3;
65783;PMS5003;52532;53.358;-1.488;2022-09-25T18:46:14;0.6;0.0;
65783;PMS5003;52532;53.358;-1.488;2022-09-25T18:49:17;0.1;0.0;
65783;PMS5003;52532;53.358;-1.488;2022-09-25T18:52:20;0.0;0.0;
65783;PMS5003;52532;53.358;-1.488;2022-09-25T18:55:24;0.0;0.0;
65783;PMS5003;52532;53.358;-1.488;2022-09-25T18:58:28;5.4;0.0;
65783;PMS5003;52532;53.358;-1.488;2022-09-25T19:01:31;6.7;0.0;
65783;PMS5003;52532;53.358;-1.488;2022-09-25T19:04:40;3.1;0.0;
65783;PMS5003;52532;53.358;-1.488;2022-09-25T19:07:48;0.0;0.0;
65783;PMS5003;52532;53.358;-1.488;2022-09-25T19:10:52;5.2;0.3;
65783;PMS5003;52532;53.358;-1.488;2022-09-25T19:13:55;5.0;0.2;
65783;PMS5003;52532;53.358;-1.488;2022-09-25T19:16:58;3.8;0.0;
65783;PMS5003;52532;53.358;-1.488;2022-09-25T19:20:07;8.1;0.0;
65783;PMS5003;52532;53.358;-1.488;2022-09-25T19:23:11;6.2;0.0;
65783;PMS5003;52532;53.358;-1.488;2022-09-25T19:26:14;6.3;0.0;
65783;PMS5003;52532;53.358;-1.488;2022-09-25T19:29:20;10.0;0.0;
65783;PMS5003;52532;53.358;-1.488;2022-09-25T19:32:23;7.5;0.0;
65783;PMS5003;52532;53.358;-1.488;2022-09-25T19:35:26;6.3;0.0;
65783;PMS5003;52532;53.358;-1.488;2022-09-25T19:38:30;9.9;0.0;
65783;PMS5003;52532;53.358;-1.488;2022-09-25T19:41:39;8.3;0.0;
65783;PMS5003;52532;53.358;-1.488;2022-09-25T19:44:44;8.1;1.2;
65783;PMS5003;52532;53.358;-1.488;2022-09-25T19:47:48;4.0;3.1;
65783;PMS5003;52532;53.358;-1.488;2022-09-25T19:50:51;3.4;3.4;
65783;PMS5003;52532;53.358;-1.488;2022-09-25T19:53:59;1.1;1.1;
65783;PMS5003;52532;53.358;-1.488;2022-09-25T19:57:02;5.1;2.7;
65783;PMS5003;52532;53.358;-1.488;2022-09-25T20:00:09;2.9;1.7;
65783;PMS5003;52532;53.358;-1.488;2022-09-25T20:03:12;2.7;2.7;
65783;PMS5003;52532;53.358;-1.488;2022-09-25T20:06:16;2.6;2.6;
65783;PMS5003;52532;53.358;-1.488;2022-09-25T20:09:24;3.2;3.0;
65783;PMS5003;52532;53.358;-1.488;2022-09-25T20:12:28;2.8;2.1;
65783;PMS5003;52532;53.358;-1.488;2022-09-25T20:15:31;0.7;0.6;